sensor_id;sensor_type;location;lat;lon;timestamp;P1;durP1;ratioP1;P2;durP2;ratioP2
10154;SDS011;5118;48.570;7.916;2022-12-18T00:00:02;100.53;;;37.50;;
10154;SDS011;5118;48.570;7.916;2022-12-18T00:02:39;100.10;;;39.90;;
10154;SDS011;5118;48.570;7.916;2022-12-18T00:05:07;85.87;;;36.00;;
10154;SDS011;5118;48.570;7.916;2022-12-18T00:07:36;94.27;;;37.70;;
10154;SDS011;5118;48.570;7.916;2022-12-18T00:10:05;79.10;;;36.37;;
10154;SDS011;5118;48.570;7.916;2022-12-18T00:12:34;84.87;;;36.50;;
10154;SDS011;5118;48.570;7.916;2022-12-18T00:15:03;83.87;;;36.83;;
10154;SDS011;5118;48.570;7.916;2022-12-18T00:17:33;89.43;;;36.63;;
10154;SDS011;5118;48.570;7.916;2022-12-18T00:20:01;86.90;;;37.13;;
10154;SDS011;5118;48.570;7.916;2022-12-18T00:22:30;76.57;;;36.30;;
10154;SDS011;5118;48.570;7.916;2022-12-18T00:24:58;81.23;;;36.03;;
10154;SDS011;5118;48.570;7.916;2022-12-18T00:27:26;79.87;;;36.30;;
10154;SDS011;5118;48.570;7.916;2022-12-18T00:29:55;83.07;;;37.53;;
10154;SDS011;5118;48.570;7.916;2022-12-18T00:32:25;93.17;;;38.73;;
10154;SDS011;5118;48.570;7.916;2022-12-18T00:34:53;78.57;;;36.80;;
10154;SDS011;5118;48.570;7.916;2022-12-18T00:37:21;82.80;;;37.20;;
10154;SDS011;5118;48.570;7.916;2022-12-18T00:39:50;81.13;;;36.10;;
10154;SDS011;5118;48.570;7.916;2022-12-18T00:42:19;77.97;;;33.73;;
10154;SDS011;5118;48.570;7.916;2022-12-18T00:45:05;84.63;;;35.30;;
10154;SDS011;5118;48.570;7.916;2022-12-18T00:47:40;84.23;;;34.83;;
10154;SDS011;5118;48.570;7.916;2022-12-18T00:50:08;101.50;;;36.63;;
10154;SDS011;5118;48.570;7.916;2022-12-18T00:52:37;138.77;;;35.73;;
10154;SDS011;5118;48.570;7.916;2022-12-18T00:55:05;112.40;;;34.77;;
10154;SDS011;5118;48.570;7.916;2022-12-18T00:57:34;91.00;;;35.70;;
10154;SDS011;5118;48.570;7.916;2022-12-18T01:00:03;98.90;;;34.80;;
10154;SDS011;5118;48.570;7.916;2022-12-18T01:02:34;85.93;;;36.80;;
10154;SDS011;5118;48.570;7.916;2022-12-18T01:05:04;102.47;;;38.20;;
10154;SDS011;5118;48.570;7.916;2022-12-18T01:07:33;115.37;;;36.43;;
10154;SDS011;5118;48.570;7.916;2022-12-18T01:10:02;104.37;;;36.73;;
10154;SDS011;5118;48.570;7.916;2022-12-18T01:12:31;138.13;;;37.33;;
10154;SDS011;5118;48.570;7.916;2022-12-18T01:15:00;103.77;;;37.20;;
10154;SDS011;5118;48.570;7.916;2022-12-18T01:17:28;115.17;;;38.37;;
10154;SDS011;5118;48.570;7.916;2022-12-18T01:19:59;110.07;;;35.17;;
10154;SDS011;5118;48.570;7.916;2022-12-18T01:22:29;113.37;;;35.90;;
10154;SDS011;5118;48.570;7.916;2022-12-18T01:25:00;96.77;;;35.03;;
10154;SDS011;5118;48.570;7.916;2022-12-18T01:27:28;176.33;;;37.87;;
10154;SDS011;5118;48.570;7.916;2022-12-18T01:29:57;119.80;;;35.53;;
10154;SDS011;5118;48.570;7.916;2022-12-18T01:32:25;112.60;;;36.97;;
10154;SDS011;5118;48.570;7.916;2022-12-18T01:34:54;137.60;;;37.17;;
10154;SDS011;5118;48.570;7.916;2022-12-18T01:37:23;130.10;;;39.40;;
10154;SDS011;5118;48.570;7.916;2022-12-18T01:39:53;102.80;;;36.63;;
10154;SDS011;5118;48.570;7.916;2022-12-18T01:42:22;106.07;;;36.73;;
10154;SDS011;5118;48.570;7.916;2022-12-18T01:44:56;107.37;;;34.77;;
10154;SDS011;5118;48.570;7.916;2022-12-18T01:47:28;104.23;;;37.20;;
10154;SDS011;5118;48.570;7.916;2022-12-18T01:50:01;91.60;;;35.17;;
10154;SDS011;5118;48.570;7.916;2022-12-18T01:52:35;101.07;;;36.83;;
10154;SDS011;5118;48.570;7.916;2022-12-18T01:55:06;116.63;;;36.40;;
10154;SDS011;5118;48.570;7.916;2022-12-18T01:57:36;118.67;;;36.67;;
10154;SDS011;5118;48.570;7.916;2022-12-18T02:00:07;91.23;;;37.53;;
10154;SDS011;5118;48.570;7.916;2022-12-18T02:02:44;90.00;;;36.37;;
10154;SDS011;5118;48.570;7.916;2022-12-18T02:05:14;133.67;;;36.23;;
10154;SDS011;5118;48.570;7.916;2022-12-18T02:07:48;96.33;;;37.47;;
10154;SDS011;5118;48.570;7.916;2022-12-18T02:10:29;94.63;;;38.13;;
10154;SDS011;5118;48.570;7.916;2022-12-18T02:13:06;106.77;;;38.20;;
10154;SDS011;5118;48.570;7.916;2022-12-18T02:15:41;94.17;;;38.13;;
10154;SDS011;5118;48.570;7.916;2022-12-18T02:18:15;87.83;;;34.23;;
10154;SDS011;5118;48.570;7.916;2022-12-18T02:20:49;90.20;;;35.27;;
10154;SDS011;5118;48.570;7.916;2022-12-18T02:23:24;93.77;;;36.30;;
10154;SDS011;5118;48.570;7.916;2022-12-18T02:26:12;87.20;;;36.33;;
10154;SDS011;5118;48.570;7.916;2022-12-18T02:28:47;105.53;;;34.10;;
10154;SDS011;5118;48.570;7.916;2022-12-18T02:31:22;93.67;;;35.57;;
10154;SDS011;5118;48.570;7.916;2022-12-18T02:33:58;99.30;;;37.03;;
10154;SDS011;5118;48.570;7.916;2022-12-18T02:36:34;88.60;;;34.20;;
10154;SDS011;5118;48.570;7.916;2022-12-18T02:39:06;96.37;;;33.70;;
10154;SDS011;5118;48.570;7.916;2022-12-18T02:41:43;97.47;;;36.10;;
10154;SDS011;5118;48.570;7.916;2022-12-18T02:44:13;92.67;;;36.37;;
10154;SDS011;5118;48.570;7.916;2022-12-18T02:46:43;113.93;;;36.73;;
10154;SDS011;5118;48.570;7.916;2022-12-18T02:49:20;162.17;;;37.37;;
10154;SDS011;5118;48.570;7.916;2022-12-18T02:52:00;120.93;;;33.93;;
10154;SDS011;5118;48.570;7.916;2022-12-18T02:54:36;149.27;;;35.17;;
10154;SDS011;5118;48.570;7.916;2022-12-18T02:57:22;123.67;;;33.90;;
10154;SDS011;5118;48.570;7.916;2022-12-18T03:00:00;116.03;;;32.57;;
10154;SDS011;5118;48.570;7.916;2022-12-18T03:02:34;146.23;;;34.23;;
10154;SDS011;5118;48.570;7.916;2022-12-18T03:05:09;128.20;;;33.00;;
10154;SDS011;5118;48.570;7.916;2022-12-18T03:07:46;114.53;;;34.77;;
10154;SDS011;5118;48.570;7.916;2022-12-18T03:10:19;112.93;;;35.70;;
10154;SDS011;5118;48.570;7.916;2022-12-18T03:12:54;102.10;;;35.13;;
10154;SDS011;5118;48.570;7.916;2022-12-18T03:15:28;97.47;;;33.37;;
10154;SDS011;5118;48.570;7.916;2022-12-18T03:18:08;86.07;;;32.97;;
10154;SDS011;5118;48.570;7.916;2022-12-18T03:20:40;97.57;;;33.90;;
10154;SDS011;5118;48.570;7.916;2022-12-18T03:23:15;111.77;;;35.27;;
10154;SDS011;5118;48.570;7.916;2022-12-18T03:25:55;82.37;;;33.23;;
10154;SDS011;5118;48.570;7.916;2022-12-18T03:28:36;95.73;;;34.13;;
10154;SDS011;5118;48.570;7.916;2022-12-18T03:31:09;92.97;;;33.13;;
10154;SDS011;5118;48.570;7.916;2022-12-18T03:33:41;82.93;;;33.70;;
10154;SDS011;5118;48.570;7.916;2022-12-18T03:36:14;128.97;;;35.63;;
10154;SDS011;5118;48.570;7.916;2022-12-18T03:38:43;96.23;;;33.97;;
10154;SDS011;5118;48.570;7.916;2022-12-18T03:41:14;85.50;;;34.00;;
10154;SDS011;5118;48.570;7.916;2022-12-18T03:44:08;114.63;;;34.13;;
10154;SDS011;5118;48.570;7.916;2022-12-18T03:46:45;85.57;;;31.90;;
10154;SDS011;5118;48.570;7.916;2022-12-18T03:49:18;96.93;;;32.73;;
10154;SDS011;5118;48.570;7.916;2022-12-18T03:51:58;81.37;;;31.90;;
10154;SDS011;5118;48.570;7.916;2022-12-18T03:54:31;85.23;;;34.07;;
10154;SDS011;5118;48.570;7.916;2022-12-18T03:57:11;93.23;;;34.03;;
10154;SDS011;5118;48.570;7.916;2022-12-18T03:59:44;82.23;;;34.00;;
10154;SDS011;5118;48.570;7.916;2022-12-18T04:02:17;89.63;;;31.80;;
10154;SDS011;5118;48.570;7.916;2022-12-18T04:04:47;88.67;;;32.73;;
10154;SDS011;5118;48.570;7.916;2022-12-18T04:07:18;89.63;;;32.87;;
10154;SDS011;5118;48.570;7.916;2022-12-18T04:09:48;81.40;;;32.57;;
10154;SDS011;5118;48.570;7.916;2022-12-18T04:12:18;86.07;;;32.40;;
10154;SDS011;5118;48.570;7.916;2022-12-18T04:14:48;86.70;;;33.13;;
10154;SDS011;5118;48.570;7.916;2022-12-18T04:17:17;93.00;;;33.37;;
10154;SDS011;5118;48.570;7.916;2022-12-18T04:19:45;80.80;;;31.73;;
10154;SDS011;5118;48.570;7.916;2022-12-18T04:22:15;81.87;;;32.27;;
10154;SDS011;5118;48.570;7.916;2022-12-18T04:24:46;84.93;;;32.23;;
10154;SDS011;5118;48.570;7.916;2022-12-18T04:27:23;85.33;;;33.27;;
10154;SDS011;5118;48.570;7.916;2022-12-18T04:29:53;77.83;;;32.67;;
10154;SDS011;5118;48.570;7.916;2022-12-18T04:32:22;76.33;;;30.37;;
10154;SDS011;5118;48.570;7.916;2022-12-18T04:34:50;80.77;;;31.27;;
10154;SDS011;5118;48.570;7.916;2022-12-18T04:37:19;89.43;;;31.13;;
10154;SDS011;5118;48.570;7.916;2022-12-18T04:39:49;86.77;;;32.27;;
10154;SDS011;5118;48.570;7.916;2022-12-18T04:42:25;79.23;;;30.10;;
10154;SDS011;5118;48.570;7.916;2022-12-18T04:44:54;63.37;;;28.97;;
10154;SDS011;5118;48.570;7.916;2022-12-18T04:47:23;69.33;;;28.93;;
10154;SDS011;5118;48.570;7.916;2022-12-18T04:49:51;85.43;;;30.30;;
10154;SDS011;5118;48.570;7.916;2022-12-18T04:52:19;80.23;;;30.13;;
10154;SDS011;5118;48.570;7.916;2022-12-18T04:54:50;72.47;;;29.43;;
10154;SDS011;5118;48.570;7.916;2022-12-18T04:57:19;83.23;;;30.83;;
10154;SDS011;5118;48.570;7.916;2022-12-18T04:59:47;73.70;;;28.43;;
10154;SDS011;5118;48.570;7.916;2022-12-18T05:02:17;73.07;;;28.60;;
10154;SDS011;5118;48.570;7.916;2022-12-18T05:04:45;68.00;;;27.23;;
10154;SDS011;5118;48.570;7.916;2022-12-18T05:07:14;73.13;;;28.37;;
10154;SDS011;5118;48.570;7.916;2022-12-18T05:09:42;66.43;;;28.90;;
10154;SDS011;5118;48.570;7.916;2022-12-18T05:12:11;76.47;;;27.43;;
10154;SDS011;5118;48.570;7.916;2022-12-18T05:14:39;83.83;;;27.90;;
10154;SDS011;5118;48.570;7.916;2022-12-18T05:17:07;77.73;;;29.30;;
10154;SDS011;5118;48.570;7.916;2022-12-18T05:19:37;79.50;;;28.83;;
10154;SDS011;5118;48.570;7.916;2022-12-18T05:22:05;77.83;;;28.03;;
10154;SDS011;5118;48.570;7.916;2022-12-18T05:24:34;81.67;;;28.80;;
10154;SDS011;5118;48.570;7.916;2022-12-18T05:27:02;94.37;;;28.87;;
10154;SDS011;5118;48.570;7.916;2022-12-18T05:29:31;80.20;;;30.33;;
10154;SDS011;5118;48.570;7.916;2022-12-18T05:31:59;88.10;;;30.00;;
10154;SDS011;5118;48.570;7.916;2022-12-18T05:34:28;79.27;;;28.47;;
10154;SDS011;5118;48.570;7.916;2022-12-18T05:36:57;73.20;;;28.27;;
10154;SDS011;5118;48.570;7.916;2022-12-18T05:39:25;67.63;;;28.03;;
10154;SDS011;5118;48.570;7.916;2022-12-18T05:41:54;68.90;;;27.93;;
10154;SDS011;5118;48.570;7.916;2022-12-18T05:44:22;71.47;;;27.27;;
10154;SDS011;5118;48.570;7.916;2022-12-18T05:46:51;66.50;;;27.33;;
10154;SDS011;5118;48.570;7.916;2022-12-18T05:49:19;71.87;;;28.57;;
10154;SDS011;5118;48.570;7.916;2022-12-18T05:51:47;73.37;;;28.90;;
10154;SDS011;5118;48.570;7.916;2022-12-18T05:54:17;83.37;;;30.03;;
10154;SDS011;5118;48.570;7.916;2022-12-18T05:56:45;72.50;;;28.07;;
10154;SDS011;5118;48.570;7.916;2022-12-18T05:59:14;73.13;;;27.23;;
10154;SDS011;5118;48.570;7.916;2022-12-18T06:01:43;66.50;;;26.43;;
10154;SDS011;5118;48.570;7.916;2022-12-18T06:04:11;64.67;;;26.57;;
10154;SDS011;5118;48.570;7.916;2022-12-18T06:06:40;66.37;;;25.83;;
10154;SDS011;5118;48.570;7.916;2022-12-18T06:09:08;70.40;;;27.47;;
10154;SDS011;5118;48.570;7.916;2022-12-18T06:11:39;63.10;;;26.40;;
10154;SDS011;5118;48.570;7.916;2022-12-18T06:14:08;67.13;;;28.33;;
10154;SDS011;5118;48.570;7.916;2022-12-18T06:16:37;66.90;;;26.83;;
10154;SDS011;5118;48.570;7.916;2022-12-18T06:19:06;61.13;;;26.13;;
10154;SDS011;5118;48.570;7.916;2022-12-18T06:21:34;60.07;;;26.23;;
10154;SDS011;5118;48.570;7.916;2022-12-18T06:24:02;64.07;;;25.27;;
10154;SDS011;5118;48.570;7.916;2022-12-18T06:26:31;60.13;;;26.60;;
10154;SDS011;5118;48.570;7.916;2022-12-18T06:29:01;61.60;;;24.93;;
10154;SDS011;5118;48.570;7.916;2022-12-18T06:31:29;56.67;;;24.73;;
10154;SDS011;5118;48.570;7.916;2022-12-18T06:33:58;62.73;;;26.33;;
10154;SDS011;5118;48.570;7.916;2022-12-18T06:36:27;72.37;;;27.70;;
10154;SDS011;5118;48.570;7.916;2022-12-18T06:38:56;63.30;;;27.70;;
10154;SDS011;5118;48.570;7.916;2022-12-18T06:41:24;69.77;;;28.10;;
10154;SDS011;5118;48.570;7.916;2022-12-18T06:43:53;63.90;;;26.77;;
10154;SDS011;5118;48.570;7.916;2022-12-18T06:46:26;62.07;;;27.07;;
10154;SDS011;5118;48.570;7.916;2022-12-18T06:48:55;62.73;;;26.67;;
10154;SDS011;5118;48.570;7.916;2022-12-18T06:51:23;74.53;;;29.23;;
10154;SDS011;5118;48.570;7.916;2022-12-18T06:53:52;67.27;;;27.33;;
10154;SDS011;5118;48.570;7.916;2022-12-18T06:56:20;67.07;;;27.77;;
10154;SDS011;5118;48.570;7.916;2022-12-18T06:58:49;66.10;;;29.20;;
10154;SDS011;5118;48.570;7.916;2022-12-18T07:01:17;68.87;;;30.27;;
10154;SDS011;5118;48.570;7.916;2022-12-18T07:03:51;72.10;;;29.83;;
10154;SDS011;5118;48.570;7.916;2022-12-18T07:06:21;75.83;;;35.50;;
10154;SDS011;5118;48.570;7.916;2022-12-18T07:08:52;66.57;;;29.73;;
10154;SDS011;5118;48.570;7.916;2022-12-18T07:11:22;74.10;;;33.57;;
10154;SDS011;5118;48.570;7.916;2022-12-18T07:13:51;63.03;;;25.87;;
10154;SDS011;5118;48.570;7.916;2022-12-18T07:16:23;64.60;;;28.50;;
10154;SDS011;5118;48.570;7.916;2022-12-18T07:18:53;67.00;;;29.63;;
10154;SDS011;5118;48.570;7.916;2022-12-18T07:21:23;68.47;;;28.83;;
10154;SDS011;5118;48.570;7.916;2022-12-18T07:23:52;66.83;;;27.43;;
10154;SDS011;5118;48.570;7.916;2022-12-18T07:26:21;67.37;;;27.93;;
10154;SDS011;5118;48.570;7.916;2022-12-18T07:28:50;73.43;;;36.53;;
10154;SDS011;5118;48.570;7.916;2022-12-18T07:31:22;56.30;;;26.77;;
10154;SDS011;5118;48.570;7.916;2022-12-18T07:33:51;63.67;;;26.17;;
10154;SDS011;5118;48.570;7.916;2022-12-18T07:36:21;70.53;;;31.77;;
10154;SDS011;5118;48.570;7.916;2022-12-18T07:38:50;57.97;;;25.47;;
10154;SDS011;5118;48.570;7.916;2022-12-18T07:41:19;59.90;;;25.83;;
10154;SDS011;5118;48.570;7.916;2022-12-18T07:43:48;62.93;;;25.33;;
10154;SDS011;5118;48.570;7.916;2022-12-18T07:46:16;77.30;;;26.33;;
10154;SDS011;5118;48.570;7.916;2022-12-18T07:48:45;58.60;;;24.53;;
10154;SDS011;5118;48.570;7.916;2022-12-18T07:51:17;65.70;;;26.87;;
10154;SDS011;5118;48.570;7.916;2022-12-18T07:53:45;54.60;;;24.23;;
10154;SDS011;5118;48.570;7.916;2022-12-18T07:56:18;61.73;;;29.10;;
10154;SDS011;5118;48.570;7.916;2022-12-18T07:58:56;52.07;;;22.87;;
10154;SDS011;5118;48.570;7.916;2022-12-18T08:01:29;51.37;;;23.80;;
10154;SDS011;5118;48.570;7.916;2022-12-18T08:03:58;61.00;;;29.60;;
10154;SDS011;5118;48.570;7.916;2022-12-18T08:06:27;57.10;;;24.63;;
10154;SDS011;5118;48.570;7.916;2022-12-18T08:08:56;54.70;;;24.43;;
10154;SDS011;5118;48.570;7.916;2022-12-18T08:11:25;59.13;;;24.00;;
10154;SDS011;5118;48.570;7.916;2022-12-18T08:13:54;55.17;;;23.30;;
10154;SDS011;5118;48.570;7.916;2022-12-18T08:16:23;75.63;;;23.90;;
10154;SDS011;5118;48.570;7.916;2022-12-18T08:18:52;60.43;;;24.37;;
10154;SDS011;5118;48.570;7.916;2022-12-18T08:21:22;61.20;;;24.63;;
10154;SDS011;5118;48.570;7.916;2022-12-18T08:23:54;86.27;;;25.63;;
10154;SDS011;5118;48.570;7.916;2022-12-18T08:26:25;59.27;;;25.33;;
10154;SDS011;5118;48.570;7.916;2022-12-18T08:28:54;63.03;;;28.50;;
10154;SDS011;5118;48.570;7.916;2022-12-18T08:31:24;53.47;;;24.00;;
10154;SDS011;5118;48.570;7.916;2022-12-18T08:33:53;77.83;;;25.50;;
10154;SDS011;5118;48.570;7.916;2022-12-18T08:36:22;59.67;;;26.30;;
10154;SDS011;5118;48.570;7.916;2022-12-18T08:38:54;63.03;;;30.77;;
10154;SDS011;5118;48.570;7.916;2022-12-18T08:41:22;59.47;;;27.90;;
10154;SDS011;5118;48.570;7.916;2022-12-18T08:43:50;58.60;;;28.10;;
10154;SDS011;5118;48.570;7.916;2022-12-18T08:46:37;56.33;;;26.67;;
10154;SDS011;5118;48.570;7.916;2022-12-18T08:49:07;52.77;;;25.47;;
10154;SDS011;5118;48.570;7.916;2022-12-18T08:51:36;52.77;;;24.83;;
10154;SDS011;5118;48.570;7.916;2022-12-18T08:54:07;56.10;;;26.67;;
10154;SDS011;5118;48.570;7.916;2022-12-18T08:56:38;54.40;;;24.37;;
10154;SDS011;5118;48.570;7.916;2022-12-18T08:59:06;55.93;;;26.70;;
10154;SDS011;5118;48.570;7.916;2022-12-18T09:01:44;58.47;;;29.13;;
10154;SDS011;5118;48.570;7.916;2022-12-18T09:04:14;60.00;;;26.63;;
10154;SDS011;5118;48.570;7.916;2022-12-18T09:06:44;56.27;;;25.83;;
10154;SDS011;5118;48.570;7.916;2022-12-18T09:09:14;59.00;;;26.90;;
10154;SDS011;5118;48.570;7.916;2022-12-18T09:11:42;61.70;;;28.03;;
10154;SDS011;5118;48.570;7.916;2022-12-18T09:14:11;62.37;;;26.17;;
10154;SDS011;5118;48.570;7.916;2022-12-18T09:16:39;58.93;;;26.50;;
10154;SDS011;5118;48.570;7.916;2022-12-18T09:19:08;49.80;;;23.77;;
10154;SDS011;5118;48.570;7.916;2022-12-18T09:21:37;56.30;;;25.27;;
10154;SDS011;5118;48.570;7.916;2022-12-18T09:24:14;56.30;;;25.63;;
10154;SDS011;5118;48.570;7.916;2022-12-18T09:26:43;159.57;;;80.23;;
10154;SDS011;5118;48.570;7.916;2022-12-18T09:29:13;127.27;;;60.30;;
10154;SDS011;5118;48.570;7.916;2022-12-18T09:31:44;51.20;;;27.27;;
10154;SDS011;5118;48.570;7.916;2022-12-18T09:34:12;52.73;;;28.27;;
10154;SDS011;5118;48.570;7.916;2022-12-18T09:36:41;49.27;;;26.73;;
10154;SDS011;5118;48.570;7.916;2022-12-18T09:39:09;51.23;;;26.10;;
10154;SDS011;5118;48.570;7.916;2022-12-18T09:41:43;54.97;;;31.52;;
10154;SDS011;5118;48.570;7.916;2022-12-18T09:44:16;54.20;;;29.93;;
10154;SDS011;5118;48.570;7.916;2022-12-18T09:46:51;55.40;;;27.20;;
10154;SDS011;5118;48.570;7.916;2022-12-18T09:49:26;58.80;;;29.20;;
10154;SDS011;5118;48.570;7.916;2022-12-18T09:51:59;54.10;;;27.17;;
10154;SDS011;5118;48.570;7.916;2022-12-18T09:54:33;57.67;;;26.97;;
10154;SDS011;5118;48.570;7.916;2022-12-18T09:57:09;52.97;;;26.73;;
10154;SDS011;5118;48.570;7.916;2022-12-18T09:59:41;64.90;;;32.67;;
10154;SDS011;5118;48.570;7.916;2022-12-18T10:02:14;82.13;;;38.03;;
10154;SDS011;5118;48.570;7.916;2022-12-18T10:04:44;56.77;;;28.53;;
10154;SDS011;5118;48.570;7.916;2022-12-18T10:07:22;56.07;;;28.37;;
10154;SDS011;5118;48.570;7.916;2022-12-18T10:09:58;56.23;;;27.90;;
10154;SDS011;5118;48.570;7.916;2022-12-18T10:12:37;65.40;;;31.97;;
10154;SDS011;5118;48.570;7.916;2022-12-18T10:15:12;58.43;;;27.97;;
10154;SDS011;5118;48.570;7.916;2022-12-18T10:17:49;124.83;;;48.20;;
10154;SDS011;5118;48.570;7.916;2022-12-18T10:20:24;70.73;;;33.33;;
10154;SDS011;5118;48.570;7.916;2022-12-18T10:23:01;58.93;;;29.67;;
10154;SDS011;5118;48.570;7.916;2022-12-18T10:25:38;97.27;;;44.20;;
10154;SDS011;5118;48.570;7.916;2022-12-18T10:28:16;150.23;;;59.43;;
10154;SDS011;5118;48.570;7.916;2022-12-18T10:30:46;56.28;;;31.50;;
10154;SDS011;5118;48.570;7.916;2022-12-18T10:33:16;55.07;;;28.43;;
10154;SDS011;5118;48.570;7.916;2022-12-18T10:35:45;55.93;;;28.30;;
10154;SDS011;5118;48.570;7.916;2022-12-18T10:38:20;57.10;;;28.40;;
10154;SDS011;5118;48.570;7.916;2022-12-18T10:40:51;57.63;;;28.30;;
10154;SDS011;5118;48.570;7.916;2022-12-18T10:43:24;54.23;;;28.57;;
10154;SDS011;5118;48.570;7.916;2022-12-18T10:46:02;59.97;;;30.60;;
10154;SDS011;5118;48.570;7.916;2022-12-18T10:48:52;56.23;;;28.70;;
10154;SDS011;5118;48.570;7.916;2022-12-18T10:51:23;50.77;;;25.93;;
10154;SDS011;5118;48.570;7.916;2022-12-18T10:53:57;50.67;;;25.63;;
10154;SDS011;5118;48.570;7.916;2022-12-18T10:56:30;51.17;;;26.73;;
10154;SDS011;5118;48.570;7.916;2022-12-18T10:59:02;51.10;;;26.80;;
10154;SDS011;5118;48.570;7.916;2022-12-18T11:01:45;53.67;;;26.47;;
10154;SDS011;5118;48.570;7.916;2022-12-18T11:04:19;53.03;;;28.40;;
10154;SDS011;5118;48.570;7.916;2022-12-18T11:06:56;54.73;;;27.60;;
10154;SDS011;5118;48.570;7.916;2022-12-18T11:09:26;49.40;;;26.27;;
10154;SDS011;5118;48.570;7.916;2022-12-18T11:11:57;49.33;;;27.83;;
10154;SDS011;5118;48.570;7.916;2022-12-18T11:14:29;49.83;;;26.77;;
10154;SDS011;5118;48.570;7.916;2022-12-18T11:17:00;48.73;;;26.53;;
10154;SDS011;5118;48.570;7.916;2022-12-18T11:19:52;60.50;;;30.77;;
10154;SDS011;5118;48.570;7.916;2022-12-18T11:22:23;56.80;;;28.07;;
10154;SDS011;5118;48.570;7.916;2022-12-18T11:24:55;57.03;;;29.03;;
10154;SDS011;5118;48.570;7.916;2022-12-18T11:27:50;49.23;;;26.20;;
10154;SDS011;5118;48.570;7.916;2022-12-18T11:30:23;53.30;;;28.90;;
10154;SDS011;5118;48.570;7.916;2022-12-18T11:32:53;54.73;;;28.33;;
10154;SDS011;5118;48.570;7.916;2022-12-18T11:35:27;48.80;;;27.13;;
10154;SDS011;5118;48.570;7.916;2022-12-18T11:38:05;51.73;;;28.17;;
10154;SDS011;5118;48.570;7.916;2022-12-18T11:40:42;55.00;;;28.73;;
10154;SDS011;5118;48.570;7.916;2022-12-18T11:43:14;51.40;;;28.13;;
10154;SDS011;5118;48.570;7.916;2022-12-18T11:45:50;49.53;;;27.07;;
10154;SDS011;5118;48.570;7.916;2022-12-18T11:48:22;49.10;;;27.70;;
10154;SDS011;5118;48.570;7.916;2022-12-18T11:50:54;50.53;;;25.97;;
10154;SDS011;5118;48.570;7.916;2022-12-18T11:53:25;47.53;;;27.07;;
10154;SDS011;5118;48.570;7.916;2022-12-18T11:56:01;50.70;;;27.50;;
10154;SDS011;5118;48.570;7.916;2022-12-18T11:58:38;50.77;;;28.50;;
10154;SDS011;5118;48.570;7.916;2022-12-18T12:01:15;48.70;;;27.23;;
10154;SDS011;5118;48.570;7.916;2022-12-18T12:04:05;48.20;;;26.93;;
10154;SDS011;5118;48.570;7.916;2022-12-18T12:06:55;48.77;;;26.47;;
10154;SDS011;5118;48.570;7.916;2022-12-18T12:09:31;52.07;;;28.47;;
10154;SDS011;5118;48.570;7.916;2022-12-18T12:12:13;52.27;;;28.07;;
10154;SDS011;5118;48.570;7.916;2022-12-18T12:14:55;46.90;;;26.60;;
10154;SDS011;5118;48.570;7.916;2022-12-18T12:17:33;49.83;;;26.73;;
10154;SDS011;5118;48.570;7.916;2022-12-18T12:20:07;57.27;;;31.27;;
10154;SDS011;5118;48.570;7.916;2022-12-18T12:22:43;52.53;;;28.63;;
10154;SDS011;5118;48.570;7.916;2022-12-18T12:25:23;55.23;;;30.27;;
10154;SDS011;5118;48.570;7.916;2022-12-18T12:28:02;57.43;;;31.83;;
10154;SDS011;5118;48.570;7.916;2022-12-18T12:30:43;100.93;;;50.30;;
10154;SDS011;5118;48.570;7.916;2022-12-18T12:33:26;84.57;;;44.77;;
10154;SDS011;5118;48.570;7.916;2022-12-18T12:36:05;65.17;;;33.87;;
10154;SDS011;5118;48.570;7.916;2022-12-18T12:38:42;62.17;;;33.57;;
10154;SDS011;5118;48.570;7.916;2022-12-18T12:41:18;65.73;;;33.60;;
10154;SDS011;5118;48.570;7.916;2022-12-18T12:44:09;58.20;;;31.33;;
10154;SDS011;5118;48.570;7.916;2022-12-18T12:46:42;89.80;;;43.87;;
10154;SDS011;5118;48.570;7.916;2022-12-18T12:49:14;66.10;;;34.27;;
10154;SDS011;5118;48.570;7.916;2022-12-18T12:51:45;146.97;;;75.23;;
10154;SDS011;5118;48.570;7.916;2022-12-18T12:54:21;82.47;;;43.80;;
10154;SDS011;5118;48.570;7.916;2022-12-18T12:56:54;71.13;;;37.10;;
10154;SDS011;5118;48.570;7.916;2022-12-18T12:59:29;115.43;;;59.77;;
10154;SDS011;5118;48.570;7.916;2022-12-18T13:02:05;86.67;;;43.63;;
10154;SDS011;5118;48.570;7.916;2022-12-18T13:04:45;170.03;;;87.73;;
10154;SDS011;5118;48.570;7.916;2022-12-18T13:07:18;125.13;;;61.47;;
10154;SDS011;5118;48.570;7.916;2022-12-18T13:10:19;60.20;;;33.00;;
10154;SDS011;5118;48.570;7.916;2022-12-18T13:12:53;56.77;;;29.63;;
10154;SDS011;5118;48.570;7.916;2022-12-18T13:15:24;52.47;;;29.93;;
10154;SDS011;5118;48.570;7.916;2022-12-18T13:18:13;57.50;;;30.23;;
10154;SDS011;5118;48.570;7.916;2022-12-18T13:20:46;57.60;;;30.97;;
10154;SDS011;5118;48.570;7.916;2022-12-18T13:23:27;58.07;;;31.80;;
10154;SDS011;5118;48.570;7.916;2022-12-18T13:25:58;55.23;;;30.53;;
10154;SDS011;5118;48.570;7.916;2022-12-18T13:28:49;55.00;;;31.47;;
10154;SDS011;5118;48.570;7.916;2022-12-18T13:34:35;74.13;;;38.93;;
10154;SDS011;5118;48.570;7.916;2022-12-18T13:43:23;53.47;;;30.23;;
10154;SDS011;5118;48.570;7.916;2022-12-18T13:48:51;55.43;;;29.73;;
10154;SDS011;5118;48.570;7.916;2022-12-18T13:51:25;57.07;;;31.57;;
10154;SDS011;5118;48.570;7.916;2022-12-18T13:53:58;59.87;;;32.27;;
10154;SDS011;5118;48.570;7.916;2022-12-18T13:56:29;62.60;;;32.73;;
10154;SDS011;5118;48.570;7.916;2022-12-18T13:59:11;57.87;;;31.30;;
10154;SDS011;5118;48.570;7.916;2022-12-18T14:01:46;62.80;;;32.17;;
10154;SDS011;5118;48.570;7.916;2022-12-18T14:04:21;58.53;;;31.67;;
10154;SDS011;5118;48.570;7.916;2022-12-18T14:06:57;59.77;;;32.27;;
10154;SDS011;5118;48.570;7.916;2022-12-18T14:09:34;67.63;;;33.90;;
10154;SDS011;5118;48.570;7.916;2022-12-18T14:12:06;62.20;;;31.87;;
10154;SDS011;5118;48.570;7.916;2022-12-18T14:15:00;58.50;;;31.40;;
10154;SDS011;5118;48.570;7.916;2022-12-18T14:17:30;61.57;;;32.20;;
10154;SDS011;5118;48.570;7.916;2022-12-18T14:20:00;59.13;;;32.20;;
10154;SDS011;5118;48.570;7.916;2022-12-18T14:22:28;60.57;;;33.10;;
10154;SDS011;5118;48.570;7.916;2022-12-18T14:25:10;61.73;;;32.40;;
10154;SDS011;5118;48.570;7.916;2022-12-18T14:27:44;66.60;;;33.80;;
10154;SDS011;5118;48.570;7.916;2022-12-18T14:30:24;63.03;;;34.20;;
10154;SDS011;5118;48.570;7.916;2022-12-18T14:33:04;62.90;;;33.37;;
10154;SDS011;5118;48.570;7.916;2022-12-18T14:35:34;69.17;;;33.97;;
10154;SDS011;5118;48.570;7.916;2022-12-18T14:38:15;68.03;;;35.77;;
10154;SDS011;5118;48.570;7.916;2022-12-18T14:40:53;72.63;;;37.10;;
10154;SDS011;5118;48.570;7.916;2022-12-18T14:43:25;66.40;;;33.47;;
10154;SDS011;5118;48.570;7.916;2022-12-18T14:45:55;63.87;;;32.97;;
10154;SDS011;5118;48.570;7.916;2022-12-18T14:48:30;68.53;;;34.77;;
10154;SDS011;5118;48.570;7.916;2022-12-18T14:51:03;73.77;;;36.67;;
10154;SDS011;5118;48.570;7.916;2022-12-18T14:53:35;69.10;;;34.43;;
10154;SDS011;5118;48.570;7.916;2022-12-18T14:56:15;73.20;;;36.63;;
10154;SDS011;5118;48.570;7.916;2022-12-18T14:58:47;75.10;;;36.57;;
10154;SDS011;5118;48.570;7.916;2022-12-18T15:01:18;74.60;;;35.77;;
10154;SDS011;5118;48.570;7.916;2022-12-18T15:03:50;69.30;;;35.87;;
10154;SDS011;5118;48.570;7.916;2022-12-18T15:06:24;79.90;;;38.63;;
10154;SDS011;5118;48.570;7.916;2022-12-18T15:09:00;95.50;;;40.90;;
10154;SDS011;5118;48.570;7.916;2022-12-18T15:11:42;83.70;;;40.67;;
10154;SDS011;5118;48.570;7.916;2022-12-18T15:14:23;77.17;;;37.20;;
10154;SDS011;5118;48.570;7.916;2022-12-18T15:16:59;77.87;;;35.83;;